Time;durP1;ratioP1;P1;durP2;ratioP2;P2;SDS_P1;SDS_P2;PMS_P1;PMS_P2;Temp;Humidity;BMP_temperature;BMP_pressure;BME280_temperature;BME280_humidity;BME280_pressure;Samples;Min_cycle;Max_cycle;Signal;HPM_P1;HPM_P2
2023/12/22 00:02:52;;;;;;;6.57;2.55;;;;;;;3.36;100.00;99902.38;10454881;28;20055;-78
2023/12/22 00:07:52;;;;;;;8.52;1.60;;;;;;;3.36;100.00;99919.59;10469341;28;20392;-77
2023/12/22 00:12:53;;;;;;;10.23;3.28;;;;;;;3.44;100.00;99915.78;10429552;28;20045;-77
2023/12/22 00:17:53;;;;;;;11.80;3.03;;;;;;;3.45;100.00;99927.91;10464643;28;20124;-77
2023/12/22 00:22:54;;;;;;;5.35;2.03;;;;;;;3.38;100.00;99915.41;10477365;28;20123;-79
2023/12/22 00:27:54;;;;;;;6.40;2.22;;;;;;;3.38;100.00;99946.44;10487993;28;20446;-78
2023/12/22 00:32:55;;;;;;;11.52;3.53;;;;;;;3.51;100.00;99959.34;10445617;28;20064;-78
2023/12/22 00:37:55;;;;;;;11.23;3.53;;;;;;;3.57;100.00;99976.94;10456466;28;20051;-77
2023/12/22 00:42:56;;;;;;;8.30;3.08;;;;;;;3.66;100.00;99992.13;10425285;28;20388;-78
2023/12/22 00:47:56;;;;;;;12.88;5.15;;;;;;;3.74;100.00;99965.00;10412428;28;20060;-78
2023/12/22 00:52:57;;;;;;;15.10;5.85;;;;;;;3.79;100.00;99984.31;10428005;28;20553;-78
2023/12/22 00:57:57;;;;;;;10.07;3.67;;;;;;;3.74;100.00;99988.31;10434633;28;20045;-79
2023/12/22 01:02:58;;;;;;;9.73;3.58;;;;;;;3.95;100.00;99977.47;10458272;28;20041;-79
2023/12/22 01:07:58;;;;;;;15.15;4.72;;;;;;;3.96;100.00;99990.50;10436593;28;20041;-78
2023/12/22 01:12:59;;;;;;;12.63;4.57;;;;;;;3.97;100.00;99994.91;10425733;28;20040;-78
2023/12/22 01:18:00;;;;;;;8.75;3.42;;;;;;;3.92;100.00;99996.31;10456755;28;20098;-78
2023/12/22 01:23:00;;;;;;;10.43;4.20;;;;;;;3.60;100.00;99996.91;10428410;28;20037;-78
2023/12/22 01:28:01;;;;;;;15.90;6.35;;;;;;;3.32;100.00;99997.78;10454683;28;20044;-77
2023/12/22 01:33:01;;;;;;;10.75;4.72;;;;;;;3.15;100.00;99982.13;10478675;28;20063;-78
2023/12/22 01:38:02;;;;;;;13.82;5.43;;;;;;;3.11;100.00;99999.94;10439832;28;20441;-78
2023/12/22 01:43:03;;;;;;;12.13;4.03;;;;;;;3.35;100.00;99998.00;10497603;28;20049;-80
2023/12/22 01:48:03;;;;;;;22.13;8.18;;;;;;;3.51;100.00;100007.63;10499143;28;20487;-78
2023/12/22 01:53:04;;;;;;;21.63;6.40;;;;;;;3.53;100.00;99998.25;10501983;28;20043;-79
2023/12/22 01:58:04;;;;;;;14.57;4.93;;;;;;;3.60;100.00;99996.91;10474121;28;20063;-78
2023/12/22 02:03:05;;;;;;;15.20;4.47;;;;;;;3.79;100.00;100009.31;10499479;28;20119;-78
2023/12/22 02:08:05;;;;;;;12.43;5.80;;;;;;;3.84;100.00;100019.94;10431015;28;20143;-78
2023/12/22 02:13:06;;;;;;;12.43;4.60;;;;;;;3.97;100.00;100025.06;10433097;28;20414;-78
2023/12/22 02:18:10;;;;;;;17.58;5.28;;;;;;;4.05;100.00;99995.34;10432925;28;20101;-77
2023/12/22 02:23:11;;;;;;;18.83;4.07;;;;;;;4.13;100.00;99980.28;10450887;28;20037;-78
2023/12/22 02:28:14;;;;;;;13.77;5.72;;;;;;;4.24;100.00;99974.03;10530146;27;20098;-78
2023/12/22 02:33:15;;;;;;;13.48;5.80;;;;;;;4.32;100.00;99971.00;10449396;28;20052;-78
2023/12/22 02:38:16;;;;;;;13.30;4.28;;;;;;;4.44;100.00;99953.56;10427566;28;20048;-78
2023/12/22 02:43:16;;;;;;;8.27;4.47;;;;;;;4.46;100.00;99944.19;10422933;28;20558;-78
2023/12/22 02:48:17;;;;;;;17.55;5.35;;;;;;;4.45;100.00;99949.25;10448741;28;20552;-78
2023/12/22 02:53:17;;;;;;;17.38;6.15;;;;;;;4.56;100.00;99950.75;10524155;27;20032;-79
2023/12/22 02:58:18;;;;;;;8.77;4.20;;;;;;;4.70;100.00;99949.84;10519970;28;20043;-78
2023/12/22 03:03:18;;;;;;;14.48;4.15;;;;;;;4.87;100.00;99970.66;10507783;28;20729;-79
2023/12/22 03:08:19;;;;;;;21.35;3.60;;;;;;;4.88;100.00;99910.19;10488343;28;20119;-79
2023/12/22 03:13:19;;;;;;;7.78;3.10;;;;;;;4.48;100.00;99908.88;10503938;28;20056;-77
2023/12/22 03:18:20;;;;;;;5.07;2.83;;;;;;;4.29;100.00;99925.06;10496316;28;20122;-78
2023/12/22 03:23:20;;;;;;;16.63;4.78;;;;;;;4.18;100.00;99939.09;10483731;28;20080;-79
2023/12/22 03:28:21;;;;;;;14.02;4.47;;;;;;;4.08;100.00;99946.31;10489757;28;20486;-77
2023/12/22 03:33:21;;;;;;;9.48;3.92;;;;;;;4.08;100.00;99948.03;10502554;28;20123;-78
2023/12/22 03:38:22;;;;;;;17.42;5.43;;;;;;;4.08;100.00;99959.25;10505543;28;20574;-79
2023/12/22 03:43:22;;;;;;;7.55;3.38;;;;;;;4.13;100.00;99949.19;10503539;28;20076;-78
2023/12/22 03:48:23;;;;;;;14.45;6.20;;;;;;;4.03;100.00;99947.75;10509024;28;20123;-79
2023/12/22 03:53:23;;;;;;;16.58;4.30;;;;;;;3.99;100.00;99948.38;10509608;28;20119;-78
2023/12/22 03:58:24;;;;;;;23.42;5.07;;;;;;;4.10;100.00;99959.38;10503932;28;20470;-79
2023/12/22 04:03:25;;;;;;;10.43;3.83;;;;;;;4.15;100.00;99973.50;10510131;28;20552;-78
2023/12/22 04:08:25;;;;;;;9.65;4.00;;;;;;;4.28;100.00;99987.16;10503123;28;20101;-79
2023/12/22 04:13:26;;;;;;;16.10;4.57;;;;;;;4.55;100.00;99967.13;10496787;28;20123;-80
2023/12/22 04:18:26;;;;;;;20.13;6.50;;;;;;;4.76;100.00;99982.13;10498967;28;20184;-80
2023/12/22 04:23:27;;;;;;;18.27;4.22;;;;;;;4.92;100.00;99973.50;10507222;28;20115;-80
2023/12/22 04:28:27;;;;;;;12.52;3.95;;;;;;;5.10;100.00;99966.75;10502584;28;20115;-79
2023/12/22 04:33:28;;;;;;;19.45;5.18;;;;;;;5.22;100.00;99955.25;10490659;28;20120;-77
2023/12/22 04:38:28;;;;;;;8.50;3.33;;;;;;;5.47;100.00;99964.38;10503948;28;20507;-78
2023/12/22 04:43:29;;;;;;;15.27;6.15;;;;;;;5.65;100.00;99956.66;10490254;28;20123;-79
2023/12/22 04:48:29;;;;;;;12.77;4.93;;;;;;;5.83;100.00;99959.34;10495182;28;20038;-79
2023/12/22 04:53:30;;;;;;;14.65;3.60;;;;;;;5.93;100.00;99972.00;10531750;27;20131;-79
2023/12/22 04:58:30;;;;;;;20.25;4.03;;;;;;;5.99;100.00;99967.13;10505996;28;20127;-79
2023/12/22 05:03:31;;;;;;;8.35;4.10;;;;;;;6.05;100.00;99969.16;10498980;28;20119;-78
2023/12/22 05:08:31;;;;;;;21.52;5.78;;;;;;;6.10;100.00;99972.88;10493767;28;20063;-79
2023/12/22 05:13:32;;;;;;;12.05;3.03;;;;;;;6.08;100.00;99990.09;10480574;28;20116;-79
2023/12/22 05:18:32;;;;;;;12.68;4.82;;;;;;;6.02;100.00;100000.16;10485433;28;20119;-78
2023/12/22 05:23:33;;;;;;;16.17;4.97;;;;;;;6.01;100.00;100008.78;10490133;28;20047;-79
2023/12/22 05:28:33;;;;;;;13.93;5.07;;;;;;;5.99;100.00;100016.47;10500819;28;20123;-80
2023/12/22 05:33:34;;;;;;;13.80;5.07;;;;;;;5.97;100.00;100002.50;10450330;28;20037;-78
2023/12/22 05:38:38;;;;;;;21.08;5.03;;;;;;;6.05;100.00;100008.13;10445433;28;20459;-79
2023/12/22 05:43:39;;;;;;;13.00;6.95;;;;;;;6.04;100.00;100005.47;10430090;28;20029;-79
2023/12/22 05:48:39;;;;;;;12.70;3.55;;;;;;;6.04;100.00;100006.34;10446920;28;20132;-78
2023/12/22 05:53:40;;;;;;;11.50;4.38;;;;;;;6.03;100.00;100004.56;10495818;28;20063;-78
2023/12/22 05:58:41;;;;;;;7.45;3.60;;;;;;;5.94;100.00;100006.63;10504422;28;20090;-78
2023/12/22 06:03:41;;;;;;;16.33;6.25;;;;;;;5.92;100.00;100018.66;10507117;28;20028;-77
2023/12/22 06:08:42;;;;;;;19.42;4.93;;;;;;;5.97;100.00;100027.56;10475922;28;20123;-79
2023/12/22 06:13:42;;;;;;;20.98;6.70;;;;;;;6.02;100.00;100027.06;10496895;28;20037;-77
2023/12/22 06:18:43;;;;;;;25.33;6.85;;;;;;;5.83;100.00;100035.53;10462751;28;20052;-78
2023/12/22 06:23:44;;;;;;;25.75;9.43;;;;;;;5.72;100.00;100036.66;10470511;28;20047;-78
2023/12/22 06:28:45;;;;;;;28.33;7.57;;;;;;;5.73;100.00;100041.94;10517749;28;20135;-79
2023/12/22 06:33:48;;;;;;;25.00;8.52;;;;;;;5.79;100.00;100040.50;10509240;28;20492;-77
2023/12/22 06:38:53;;;;;;;25.23;8.45;;;;;;;5.83;100.00;100027.75;10518362;28;20043;-77
2023/12/22 06:43:53;;;;;;;18.27;7.97;;;;;;;5.92;100.00;100014.38;10499877;28;20032;-77
2023/12/22 06:48:54;;;;;;;16.67;7.53;;;;;;;6.01;100.00;100034.75;10494073;28;20044;-79
2023/12/22 06:53:55;;;;;;;19.93;7.90;;;;;;;6.13;100.00;100037.13;10504581;28;20037;-79
2023/12/22 06:58:57;;;;;;;21.42;8.70;;;;;;;6.27;100.00;100030.03;10503953;28;20560;-79
2023/12/22 07:04:00;;;;;;;37.22;8.77;;;;;;;6.33;100.00;100009.53;10527541;27;20063;-78
2023/12/22 07:09:12;;;;;;;24.83;9.07;;;;;;;6.41;100.00;100017.75;10502982;28;20385;-78
2023/12/22 07:14:12;;;;;;;;;;;;;;;6.27;100.00;100027.41;10488138;28;20392;-78
2023/12/22 07:19:13;;;;;;;25.02;10.88;;;;;;;6.09;100.00;100029.97;10508838;28;19920;-81
2023/12/22 07:24:13;;;;;;;24.52;9.68;;;;;;;5.96;100.00;100036.19;10485086;28;20040;-78
2023/12/22 07:29:14;;;;;;;33.13;8.82;;;;;;;5.96;100.00;100038.78;10489749;28;20043;-78
2023/12/22 07:34:15;;;;;;;24.90;10.88;;;;;;;6.12;100.00;100037.94;10499819;28;20058;-77
2023/12/22 07:39:15;;;;;;;29.33;11.32;;;;;;;6.14;100.00;100024.19;10485891;28;20602;-78
2023/12/22 07:44:16;;;;;;;28.30;10.00;;;;;;;6.26;100.00;100020.44;10502501;28;20093;-78
2023/12/22 07:49:16;;;;;;;13.38;5.28;;;;;;;6.40;100.00;100019.44;10501683;28;20128;-78
2023/12/22 07:54:17;;;;;;;9.65;6.45;;;;;;;6.45;100.00;100022.28;10489776;28;20126;-77
2023/12/22 07:59:17;;;;;;;23.88;8.45;;;;;;;6.50;100.00;100010.41;10486303;28;20041;-79
2023/12/22 08:04:18;;;;;;;23.65;9.00;;;;;;;6.54;100.00;100001.94;10492704;28;20509;-77
2023/12/22 08:09:18;;;;;;;16.45;7.88;;;;;;;6.63;100.00;99993.69;10497858;28;20123;-78
2023/12/22 08:14:19;;;;;;;16.73;7.25;;;;;;;6.76;100.00;99997.81;10531213;28;20064;-78
2023/12/22 08:19:21;;;;;;;42.40;8.48;;;;;;;6.83;100.00;99997.28;10508043;28;20094;-80
2023/12/22 08:24:21;;;;;;;12.32;6.22;;;;;;;6.93;100.00;100002.94;10494476;28;20476;-80
2023/12/22 08:29:22;;;;;;;11.77;7.10;;;;;;;7.04;100.00;99996.56;10438477;28;20078;-79
2023/12/22 08:34:23;;;;;;;14.23;6.68;;;;;;;7.10;100.00;100003.75;10414316;28;20522;-81
2023/12/22 08:39:26;;;;;;;23.17;8.30;;;;;;;7.18;100.00;100005.00;10425170;28;20459;-80
2023/12/22 08:44:27;;;;;;;23.15;6.15;;;;;;;7.24;100.00;100005.28;10437619;28;20123;-84
2023/12/22 08:49:27;;;;;;;20.63;5.13;;;;;;;7.29;100.00;100003.78;10441290;28;20032;-81
2023/12/22 08:54:28;;;;;;;15.77;6.07;;;;;;;7.28;100.00;99983.78;10440143;28;20048;-82
2023/12/22 08:59:28;;;;;;;22.90;5.25;;;;;;;7.31;100.00;99980.47;10434362;28;20528;-78
2023/12/22 09:04:29;;;;;;;9.90;3.80;;;;;;;7.38;100.00;99981.63;10415368;28;20052;-80
2023/12/22 09:09:29;;;;;;;11.57;4.40;;;;;;;7.44;100.00;99966.28;10439506;28;20369;-79
2023/12/22 09:14:30;;;;;;;16.25;3.85;;;;;;;7.50;100.00;99971.75;10428366;28;20111;-82
2023/12/22 09:19:34;;;;;;;8.80;4.28;;;;;;;7.46;100.00;99968.16;10438390;28;20033;-79
2023/12/22 09:24:34;;;;;;;9.60;4.20;;;;;;;7.46;100.00;99962.03;10438123;28;20057;-80
2023/12/22 09:29:36;;;;;;;8.45;2.88;;;;;;;7.44;100.00;99976.69;10434173;28;20161;-77
2023/12/22 09:34:36;;;;;;;4.43;1.50;;;;;;;7.48;100.00;99987.34;10438863;28;20044;-79
2023/12/22 09:39:37;;;;;;;16.65;2.75;;;;;;;7.50;100.00;99987.38;10437794;28;20397;-82
2023/12/22 09:44:37;;;;;;;5.40;2.75;;;;;;;7.48;100.00;99976.91;10437758;28;20112;-80
2023/12/22 09:49:38;;;;;;;3.83;1.98;;;;;;;7.52;100.00;99988.34;10420420;28;20140;-81
2023/12/22 09:54:39;;;;;;;21.37;4.93;;;;;;;7.51;100.00;99986.56;10434676;28;20396;-79
2023/12/22 09:59:39;;;;;;;5.38;2.47;;;;;;;7.44;100.00;99990.63;10423323;28;20135;-81
2023/12/22 10:04:40;;;;;;;21.50;4.20;;;;;;;7.38;100.00;99997.22;10436206;28;20194;-80
2023/12/22 10:09:41;;;;;;;7.40;2.40;;;;;;;7.38;100.00;99987.72;10493459;28;20039;-79
2023/12/22 10:14:41;;;;;;;3.40;1.88;;;;;;;7.61;100.00;99995.72;10492636;28;20059;-79
2023/12/22 10:19:42;;;;;;;6.00;3.45;;;;;;;7.83;100.00;99987.13;10491996;28;20044;-79
2023/12/22 10:24:43;;;;;;;7.95;2.05;;;;;;;7.88;100.00;99967.38;10500811;28;20091;-79
2023/12/22 10:29:44;;;;;;;6.13;2.53;;;;;;;8.09;100.00;99961.31;10485019;28;20483;-81
2023/12/22 10:34:44;;;;;;;18.80;3.45;;;;;;;8.31;100.00;99949.22;10459169;28;20128;-80
2023/12/22 10:39:48;;;;;;;6.30;2.70;;;;;;;8.26;100.00;99936.00;10454540;28;20052;-80
2023/12/22 10:44:49;;;;;;;3.83;2.90;;;;;;;8.31;100.00;99947.50;10415023;28;20037;-80
2023/12/22 10:49:50;;;;;;;4.75;2.13;;;;;;;8.27;100.00;99944.69;10478149;28;20043;-80
2023/12/22 10:54:50;;;;;;;4.50;2.45;;;;;;;8.25;100.00;99930.69;10488419;28;20044;-79
2023/12/22 10:59:51;;;;;;;2.95;1.35;;;;;;;8.25;100.00;99942.03;10481420;28;20127;-79
2023/12/22 11:05:00;;;;;;;24.92;5.45;;;;;;;8.40;100.00;99943.50;10495089;28;20044;-80
2023/12/22 11:10:03;;;;;;;5.45;1.70;;;;;;;8.43;100.00;99923.63;10507303;28;20072;-80
2023/12/22 11:15:08;;;;;;;2.47;1.52;;;;;;;8.50;100.00;99923.09;10489380;28;20037;-79
2023/12/22 11:20:10;;;;;;;4.18;1.15;;;;;;;8.37;100.00;99928.59;10483988;28;20054;-79
2023/12/22 11:25:10;;;;;;;6.28;1.50;;;;;;;8.19;100.00;99947.88;10499222;27;20427;-78
2023/12/22 11:30:11;;;;;;;4.22;1.98;;;;;;;8.11;100.00;99933.63;10486653;28;20139;-78
2023/12/22 11:35:13;;;;;;;3.72;1.65;;;;;;;8.19;100.00;99945.25;10469376;28;20123;-80
2023/12/22 11:40:14;;;;;;;3.83;1.98;;;;;;;8.33;100.00;99942.34;10459308;28;20454;-79
2023/12/22 11:45:16;;;;;;;9.50;2.05;;;;;;;8.52;100.00;99938.81;10494788;28;20052;-81
2023/12/22 11:50:32;;;;;;;3.95;1.10;;;;;;;8.52;100.00;99917.97;10490121;28;20063;-80
2023/12/22 11:56:04;;;;;;;3.78;1.45;;;;;;;8.63;100.00;99907.94;10483428;28;20039;-79
2023/12/22 12:01:14;;;;;;;2.30;0.90;;;;;;;8.75;100.00;99895.38;10469057;28;20053;-80
2023/12/22 12:06:27;;;;;;;5.57;2.17;;;;;;;8.87;100.00;99905.44;10465303;28;20558;-81
2023/12/22 12:11:52;;;;;;;4.15;1.27;;;;;;;8.86;100.00;99911.47;10456651;28;20448;-79
2023/12/22 12:17:03;;;;;;;5.82;2.28;;;;;;;8.80;100.00;99900.81;10444823;28;20099;-81
2023/12/22 12:22:03;;;;;;;6.90;1.65;;;;;;;8.86;100.00;99890.59;10508158;27;20048;-80
2023/12/22 12:27:04;;;;;;;3.90;1.30;;;;;;;8.95;100.00;99884.84;10513234;27;20044;-78
2023/12/22 12:32:08;;;;;;;3.00;0.80;;;;;;;8.94;100.00;99868.31;10452046;28;20076;-78
2023/12/22 12:37:08;;;;;;;2.22;0.77;;;;;;;8.91;100.00;99880.34;10461653;28;20037;-78
2023/12/22 12:42:09;;;;;;;3.45;2.47;;;;;;;8.88;100.00;99875.00;10486741;28;20090;-79
2023/12/22 12:47:14;;;;;;;5.05;1.77;;;;;;;8.87;100.00;99876.72;10477483;28;20181;-78
2023/12/22 12:52:14;;;;;;;3.47;1.73;;;;;;;8.83;100.00;99869.63;10483594;28;20135;-79
2023/12/22 12:57:15;;;;;;;2.10;0.70;;;;;;;8.87;100.00;99881.03;10498726;28;20049;-81
2023/12/22 13:02:16;;;;;;;2.55;1.35;;;;;;;8.85;100.00;99869.66;10501341;28;20048;-80
2023/12/22 13:07:26;;;;;;;7.90;3.77;;;;;;;8.84;100.00;99874.00;10481605;28;20123;-79
2023/12/22 13:12:27;;;;;;;2.90;1.33;;;;;;;8.86;100.00;99872.34;10493854;28;20040;-81
2023/12/22 13:17:27;;;;;;;2.95;1.17;;;;;;;8.86;100.00;99871.44;10485466;28;20559;-81
2023/12/22 13:22:28;;;;;;;7.35;0.93;;;;;;;8.90;100.00;99857.69;10503964;28;20391;-80
2023/12/22 13:27:28;;;;;;;2.58;0.82;;;;;;;8.87;100.00;99870.59;10504482;28;20072;-80
2023/12/22 13:32:29;;;;;;;11.18;1.67;;;;;;;8.91;100.00;99882.94;10500785;28;20555;-79
2023/12/22 13:37:30;;;;;;;5.60;2.25;;;;;;;8.91;100.00;99889.06;10495416;28;20563;-80
2023/12/22 13:42:31;;;;;;;3.13;1.43;;;;;;;8.87;100.00;99878.44;10504797;28;20097;-79
2023/12/22 13:47:31;;;;;;;4.85;2.08;;;;;;;8.88;100.00;99908.91;10505013;28;20044;-80
2023/12/22 13:52:32;;;;;;;3.95;2.28;;;;;;;8.85;100.00;99919.22;10487589;28;20040;-80
2023/12/22 13:57:32;;;;;;;5.28;1.88;;;;;;;8.88;100.00;99919.34;10490702;28;20573;-79
2023/12/22 14:02:33;;;;;;;5.05;2.15;;;;;;;8.90;100.00;99917.69;10501320;28;20134;-80
2023/12/22 14:07:33;;;;;;;4.53;3.92;;;;;;;8.89;100.00;99932.47;10512557;28;20047;-79
2023/12/22 14:12:34;;;;;;;7.78;3.80;;;;;;;8.64;100.00;99954.97;10480636;28;20116;-79
2023/12/22 14:17:35;;;;;;;2.42;1.30;;;;;;;8.28;100.00;99980.34;10502078;28;20043;-79
2023/12/22 14:22:38;;;;;;;8.65;3.85;;;;;;;8.04;100.00;99989.81;10486378;28;20556;-80
2023/12/22 14:27:39;;;;;;;8.30;3.50;;;;;;;7.91;100.00;99995.31;10509360;28;20130;-79
2023/12/22 14:32:39;;;;;;;3.97;1.92;;;;;;;7.90;100.00;100011.75;10485244;28;20416;-79
2023/12/22 14:37:40;;;;;;;5.90;2.00;;;;;;;7.83;100.00;100002.75;10504593;28;20041;-79
2023/12/22 14:42:40;;;;;;;5.05;1.80;;;;;;;7.91;100.00;100016.16;10502013;28;20067;-78
2023/12/22 14:47:41;;;;;;;1.50;1.08;;;;;;;8.01;100.00;100010.53;10507654;28;20039;-81
2023/12/22 14:52:41;;;;;;;5.18;1.92;;;;;;;8.13;100.00;100012.75;10503368;28;20127;-79
2023/12/22 14:57:41;;;;;;;10.00;1.67;;;;;;;8.14;100.00;100006.72;10498795;28;20040;-78
2023/12/22 15:02:42;;;;;;;4.97;1.92;;;;;;;8.21;100.00;100015.72;10500912;28;20127;-79
2023/12/22 15:07:42;;;;;;;2.63;1.52;;;;;;;8.28;100.00;100015.16;10501025;28;20039;-78
2023/12/22 15:12:43;;;;;;;11.77;1.95;;;;;;;8.34;100.00;100009.31;10512310;28;20034;-80
2023/12/22 15:17:44;;;;;;;4.50;2.15;;;;;;;8.38;100.00;99996.47;10490756;28;20151;-80
2023/12/22 15:22:44;;;;;;;8.60;2.58;;;;;;;8.38;100.00;100009.50;10502134;28;20060;-78
2023/12/22 15:27:45;;;;;;;8.20;2.38;;;;;;;8.32;100.00;99997.91;10469469;28;20519;-80
2023/12/22 15:32:45;;;;;;;2.92;1.40;;;;;;;8.33;100.00;100005.81;10477387;28;20150;-79
2023/12/22 15:37:46;;;;;;;6.28;1.45;;;;;;;8.43;100.00;100029.69;10503173;28;20045;-77
2023/12/22 15:42:46;;;;;;;5.43;2.35;;;;;;;8.44;100.00;100002.78;10515463;28;20567;-78
2023/12/22 15:47:49;;;;;;;5.13;2.05;;;;;;;8.48;100.00;100029.03;10502829;28;20132;-80
2023/12/22 15:52:49;;;;;;;8.52;4.13;;;;;;;8.57;100.00;100040.72;10499936;28;20145;-79
2023/12/22 15:57:50;;;;;;;16.77;4.90;;;;;;;8.60;100.00;100038.25;10493050;28;20175;-80
2023/12/22 16:02:51;;;;;;;6.70;2.05;;;;;;;8.68;100.00;100033.34;10509554;28;20166;-78
2023/12/22 16:07:52;;;;;;;5.78;2.70;;;;;;;8.75;100.00;100044.09;10479276;28;20060;-79
2023/12/22 16:12:52;;;;;;;7.53;2.80;;;;;;;8.80;100.00;100053.00;10504465;28;20044;-79
2023/12/22 16:17:53;;;;;;;5.30;3.15;;;;;;;8.81;100.00;100051.31;10499104;28;20118;-80
2023/12/22 16:22:53;;;;;;;18.63;7.80;;;;;;;8.73;100.00;100057.94;10479815;28;20544;-78
2023/12/22 16:27:54;;;;;;;9.45;4.32;;;;;;;8.80;100.00;100049.53;10499280;28;20112;-79
2023/12/22 16:32:54;;;;;;;14.43;4.68;;;;;;;8.86;100.00;100049.78;10504242;28;20039;-79
2023/12/22 16:37:55;;;;;;;7.22;2.60;;;;;;;8.86;100.00;100068.03;10482403;28;20124;-79
2023/12/22 16:42:55;;;;;;;4.82;3.03;;;;;;;8.81;100.00;100066.97;10505922;28;20127;-79
2023/12/22 16:47:56;;;;;;;4.60;2.20;;;;;;;8.79;100.00;100069.50;10502262;28;20116;-80
2023/12/22 16:52:57;;;;;;;6.20;3.00;;;;;;;8.86;100.00;100059.31;10499026;28;20067;-81
2023/12/22 16:57:57;;;;;;;5.93;2.67;;;;;;;8.87;100.00;100079.34;10501637;28;20118;-79
2023/12/22 17:02:58;;;;;;;8.10;3.90;;;;;;;8.86;100.00;100085.41;10500120;28;20479;-80
2023/12/22 17:07:58;;;;;;;3.08;1.73;;;;;;;8.79;100.00;100095.59;10492173;28;20048;-80
2023/12/22 17:12:59;;;;;;;7.07;4.13;;;;;;;8.77;100.00;100089.41;10496515;28;20098;-81
2023/12/22 17:17:59;;;;;;;11.02;3.97;;;;;;;8.77;100.00;100094.63;10499001;28;20111;-79
2023/12/22 17:23:00;;;;;;;10.02;3.90;;;;;;;8.77;100.00;100101.59;10506858;28;20067;-78
2023/12/22 17:28:00;;;;;;;5.15;3.25;;;;;;;8.81;100.00;100090.44;10493815;28;20391;-78
2023/12/22 17:33:01;;;;;;;6.45;2.88;;;;;;;8.85;100.00;100094.06;10516983;28;20127;-79
2023/12/22 17:38:02;;;;;;;11.45;3.70;;;;;;;8.86;100.00;100091.53;10508826;28;20127;-79
2023/12/22 17:43:03;;;;;;;7.88;2.45;;;;;;;8.86;100.00;100114.13;10514063;28;20044;-77
2023/12/22 17:48:05;;;;;;;5.82;2.53;;;;;;;8.89;100.00;100119.47;10494342;28;20476;-78
2023/12/22 17:53:06;;;;;;;4.78;2.67;;;;;;;8.86;100.00;100130.69;10472378;28;20028;-78
2023/12/22 17:58:06;;;;;;;9.35;2.28;;;;;;;8.88;100.00;100128.13;10468981;28;20453;-78
2023/12/22 18:03:07;;;;;;;5.30;1.75;;;;;;;8.77;100.00;100119.84;10505399;28;20037;-79
2023/12/22 18:08:07;;;;;;;8.95;6.45;;;;;;;8.70;100.00;100129.09;10512636;28;20116;-78
2023/12/22 18:13:09;;;;;;;8.05;3.33;;;;;;;8.72;100.00;100140.50;10468476;28;20119;-78
2023/12/22 18:18:09;;;;;;;9.90;2.92;;;;;;;8.71;100.00;100138.72;10510529;28;20048;-79
2023/12/22 18:23:10;;;;;;;5.22;1.65;;;;;;;8.73;100.00;100130.97;10501939;28;20052;-77
2023/12/22 18:28:10;;;;;;;9.23;4.43;;;;;;;8.81;100.00;100122.63;10504119;28;20080;-79
2023/12/22 18:33:14;;;;;;;8.88;1.90;;;;;;;8.77;100.00;100138.09;10501652;28;20048;-78
2023/12/22 18:38:14;;;;;;;5.45;2.22;;;;;;;8.72;100.00;100148.31;10502510;28;20055;-78
2023/12/22 18:43:15;;;;;;;7.18;1.73;;;;;;;8.73;100.00;100157.94;10498616;28;20127;-78
2023/12/22 18:48:16;;;;;;;10.38;4.25;;;;;;;8.72;100.00;100186.59;10509639;28;20527;-79
2023/12/22 18:53:16;;;;;;;1.80;0.80;;;;;;;8.75;100.00;100181.50;10535465;27;20442;-78
2023/12/22 18:58:20;;;;;;;6.80;2.53;;;;;;;8.66;100.00;100180.28;10497640;28;20173;-78
2023/12/22 19:03:20;;;;;;;12.13;2.35;;;;;;;8.66;100.00;100197.63;10534010;27;20051;-80
2023/12/22 19:08:21;;;;;;;2.28;1.33;;;;;;;8.76;100.00;100197.22;10502748;28;20041;-78
2023/12/22 19:13:21;;;;;;;12.55;3.70;;;;;;;8.77;100.00;100213.78;10507147;28;20044;-77
2023/12/22 19:18:23;;;;;;;3.78;1.30;;;;;;;8.85;100.00;100188.00;10502883;28;20080;-78
2023/12/22 19:23:23;;;;;;;7.97;2.67;;;;;;;8.84;100.00;100208.00;10510587;28;20040;-78
2023/12/22 19:28:24;;;;;;;11.27;2.28;;;;;;;8.77;100.00;100222.47;10485306;28;20132;-77
2023/12/22 19:33:26;;;;;;;7.88;1.80;;;;;;;8.71;100.00;100201.34;10510675;28;20116;-77
2023/12/22 19:38:26;;;;;;;4.18;1.65;;;;;;;8.65;100.00;100232.38;10488552;28;20094;-77
2023/12/22 19:43:27;;;;;;;3.95;2.20;;;;;;;8.60;100.00;100249.53;10512532;28;20040;-77
2023/12/22 19:48:27;;;;;;;13.85;1.70;;;;;;;8.55;100.00;100275.41;10502664;28;20061;-78
2023/12/22 19:53:28;;;;;;;5.47;3.10;;;;;;;8.52;100.00;100270.94;10514142;28;20032;-77
2023/12/22 19:58:28;;;;;;;25.10;5.00;;;;;;;8.58;100.00;100278.16;10501918;28;20041;-78
2023/12/22 20:03:29;;;;;;;4.22;1.90;;;;;;;8.50;100.00;100280.41;10498391;28;20119;-79
2023/12/22 20:08:29;;;;;;;6.15;2.72;;;;;;;8.32;100.00;100298.66;10497868;28;20036;-77
2023/12/22 20:13:30;;;;;;;7.50;2.72;;;;;;;8.23;100.00;100306.03;10485900;28;20498;-77
2023/12/22 20:18:31;;;;;;;13.45;3.70;;;;;;;8.26;100.00;100305.28;10506684;28;20116;-78
2023/12/22 20:23:31;;;;;;;17.02;2.80;;;;;;;8.20;100.00;100330.22;10498016;28;20147;-78
2023/12/22 20:28:33;;;;;;;4.97;2.28;;;;;;;8.12;100.00;100341.13;10505860;28;20135;-77
2023/12/22 20:33:33;;;;;;;8.20;2.20;;;;;;;8.14;100.00;100334.28;10490878;28;20060;-77
2023/12/22 20:38:34;;;;;;;6.20;2.85;;;;;;;8.28;100.00;100334.94;10499348;28;20119;-77
2023/12/22 20:43:34;;;;;;;9.18;3.10;;;;;;;8.30;100.00;100344.63;10504994;28;20046;-77
2023/12/22 20:48:35;;;;;;;4.22;1.88;;;;;;;8.34;100.00;100341.34;10497486;28;20123;-78
2023/12/22 20:53:37;;;;;;;10.52;3.20;;;;;;;8.37;100.00;100327.53;10498253;28;20468;-78
2023/12/22 20:58:37;;;;;;;8.10;3.30;;;;;;;8.35;100.00;100356.19;10501443;28;20045;-78
2023/12/22 21:03:38;;;;;;;6.32;2.17;;;;;;;8.34;100.00;100369.13;10491358;28;20178;-77
2023/12/22 21:08:38;;;;;;;6.63;2.05;;;;;;;8.20;100.00;100352.81;10484972;28;20384;-78
2023/12/22 21:13:41;;;;;;;9.27;2.42;;;;;;;7.97;100.00;100347.38;10498891;28;20051;-77
2023/12/22 21:18:42;;;;;;;10.25;3.13;;;;;;;7.83;100.00;100366.63;10506267;28;20576;-78
2023/12/22 21:23:42;;;;;;;4.97;2.50;;;;;;;7.92;100.00;100380.13;10471758;28;20186;-77
2023/12/22 21:28:43;;;;;;;6.75;2.17;;;;;;;8.04;100.00;100367.69;10476103;28;20108;-77
2023/12/22 21:33:43;;;;;;;12.55;3.38;;;;;;;8.04;100.00;100385.94;10459291;28;20040;-78
2023/12/22 21:38:44;;;;;;;10.63;3.05;;;;;;;8.12;100.00;100412.38;10446854;28;20109;-77
2023/12/22 21:43:44;;;;;;;3.72;1.52;;;;;;;7.88;100.00;100491.09;10476773;28;20121;-77
2023/12/22 21:48:45;;;;;;;2.67;0.93;;;;;;;6.23;100.00;100517.56;10478324;28;20028;-75
2023/12/22 21:53:45;;;;;;;16.77;1.95;;;;;;;5.50;100.00;100526.09;10471693;28;20036;-77
2023/12/22 21:58:46;;;;;;;3.47;1.30;;;;;;;5.25;100.00;100547.00;10467056;28;20548;-78
2023/12/22 22:03:46;;;;;;;5.80;1.67;;;;;;;5.10;100.00;100570.25;10469362;28;20131;-78
2023/12/22 22:08:47;;;;;;;2.47;1.20;;;;;;;5.07;100.00;100581.34;10472369;28;20087;-79
2023/12/22 22:13:47;;;;;;;5.20;1.70;;;;;;;5.10;100.00;100588.41;10480740;28;20056;-78
2023/12/22 22:18:48;;;;;;;5.10;1.45;;;;;;;5.11;100.00;100601.50;10481362;28;20369;-78
2023/12/22 22:23:48;;;;;;;3.97;1.80;;;;;;;5.17;100.00;100608.78;10484205;28;20550;-78
2023/12/22 22:28:49;;;;;;;5.47;1.80;;;;;;;5.20;100.00;100606.38;10489203;28;20060;-77
2023/12/22 22:33:49;;;;;;;6.97;2.10;;;;;;;5.27;100.00;100631.94;10463298;28;20151;-77
2023/12/22 22:38:50;;;;;;;11.30;2.72;;;;;;;5.25;100.00;100648.22;10453742;28;20045;-78
2023/12/22 22:43:50;;;;;;;8.35;2.22;;;;;;;5.28;100.00;100656.19;10485294;28;20131;-78
2023/12/22 22:48:51;;;;;;;2.10;1.15;;;;;;;5.31;100.00;100686.63;10476248;28;20124;-78
2023/12/22 22:53:52;;;;;;;8.10;2.88;;;;;;;5.32;100.00;100686.75;10507497;28;20056;-77
2023/12/22 22:58:52;;;;;;;5.88;2.55;;;;;;;5.39;100.00;100682.84;10464182;28;20388;-78
2023/12/22 23:03:53;;;;;;;6.35;1.10;;;;;;;5.39;100.00;100696.72;10492020;28;20124;-78